Terminal Aerodrome Forecast
Issued by NWS Portland, OR

Home | Current Version | Previous Version | Text Only | Print | Product List | Glossary On
Versions: 1 2 3 4 5 6 7 8 9 10 11 12 13 14 15 16 17 18 19 20 21 22 23 24 25 26 27 28
000
FTUS46 KPQR 211450 AAB
TAFPDX
TAF AMD
KPDX 211450Z 2115/2212 09005KT 5SM -RA BR BKN006 OVC040
      TEMPO 2115/2118 6SM -RA BR OVC035
     FM211800 24005KT P6SM -RA OVC020
     FM212100 27006KT P6SM BKN035=

USA.gov is the U.S. government's official web portal to all federal, state and local government web resources and services.